Time;durP1;ratioP1;P1;durP2;ratioP2;P2;SDS_P1;SDS_P2;PMS_P1;PMS_P2;Temp;Humidity;BMP_temperature;BMP_pressure;BME280_temperature;BME280_humidity;BME280_pressure;Samples;Min_cycle;Max_cycle;Signal;HPM_P1;HPM_P2
2021/01/17 00:00:10;;;;;;;138.30;37.50;;;;;;;0.87;36.59;151343.78;1768890;79;21201;-59
2021/01/17 00:02:46;;;;;;;148.35;39.30;;;;;;;0.99;36.53;151377.55;1770209;79;21210;-60
2021/01/17 00:05:26;;;;;;;141.07;39.70;;;;;;;1.00;36.25;151380.14;1748825;81;21328;-59
2021/01/17 00:08:00;;;;;;;130.93;36.23;;;;;;;0.93;36.18;151361.94;1753212;80;21685;-59
2021/01/17 00:10:34;;;;;;;130.40;37.20;;;;;;;0.74;36.27;151310.02;1736160;81;21209;-58
2021/01/17 00:13:07;;;;;;;121.60;34.65;;;;;;;0.59;36.21;151272.38;1765441;79;21229;-58
2021/01/17 00:15:40;;;;;;;134.35;38.70;;;;;;;0.49;36.45;151245.11;1738748;81;21193;-58
2021/01/17 00:18:13;;;;;;;121.90;37.00;;;;;;;0.41;36.24;151225.62;1798129;79;21167;-58
2021/01/17 00:20:48;;;;;;;128.78;36.03;;;;;;;0.33;36.43;151204.88;1753941;80;21170;-58
2021/01/17 00:23:21;;;;;;;135.90;39.33;;;;;;;0.28;36.43;151190.61;1747060;80;21222;-58
2021/01/17 00:25:54;;;;;;;127.02;39.85;;;;;;;0.24;36.53;151181.53;1792137;79;21245;-59
2021/01/17 00:28:26;;;;;;;138.32;37.70;;;;;;;0.33;36.44;151204.88;1760664;79;21214;-59
2021/01/17 00:30:59;;;;;;;128.10;36.42;;;;;;;0.28;36.36;151190.61;1755565;81;21324;-58
2021/01/17 00:33:32;;;;;;;132.70;41.33;;;;;;;0.25;36.39;151182.81;1740859;81;21882;-58
2021/01/17 00:36:07;;;;;;;134.78;37.20;;;;;;;0.30;36.34;151195.81;1748184;82;21323;-58
2021/01/17 00:38:40;;;;;;;135.90;40.15;;;;;;;0.37;36.37;151213.95;1728487;80;21178;-58
2021/01/17 00:41:12;;;;;;;131.95;38.23;;;;;;;0.42;36.35;151226.95;1787214;79;21320;-58
2021/01/17 00:43:45;;;;;;;137.03;36.15;;;;;;;0.43;36.42;151229.56;1791586;80;21186;-59
2021/01/17 00:46:19;;;;;;;136.55;38.88;;;;;;;0.54;36.42;151258.11;1731552;80;21225;-58
2021/01/17 00:48:52;;;;;;;127.50;35.90;;;;;;;0.51;36.16;151251.63;1742977;82;21336;-58
2021/01/17 00:51:25;;;;;;;121.53;36.73;;;;;;;0.51;36.24;151250.31;1747536;81;21363;-59
2021/01/17 00:53:58;;;;;;;119.17;36.33;;;;;;;0.48;36.04;151242.50;1747481;80;21313;-58
2021/01/17 00:56:31;;;;;;;115.05;35.17;;;;;;;0.42;36.06;151226.95;1726644;82;21372;-58
2021/01/17 00:59:11;;;;;;;121.62;36.15;;;;;;;0.45;36.36;151234.75;1767214;80;21343;-58
2021/01/17 01:01:46;;;;;;;112.28;34.38;;;;;;;0.46;36.35;151237.36;1761433;80;21186;-58
2021/01/17 01:04:19;;;;;;;107.27;31.70;;;;;;;0.55;36.10;151261.98;1774993;80;21305;-58
2021/01/17 01:06:53;;;;;;;125.33;36.63;;;;;;;0.56;36.03;151263.31;1726422;80;21596;-58
2021/01/17 01:09:26;;;;;;;112.08;32.65;;;;;;;0.50;36.17;151247.70;1768351;80;21165;-59
2021/01/17 01:12:00;;;;;;;107.78;33.15;;;;;;;0.49;35.97;151245.11;1758698;80;21266;-59
2021/01/17 01:14:32;;;;;;;116.60;33.58;;;;;;;0.44;35.96;151232.16;1757409;79;21252;-58
2021/01/17 01:17:05;;;;;;;100.12;28.87;;;;;;;0.43;36.28;151230.83;1755400;81;21384;-59
2021/01/17 01:19:39;;;;;;;95.42;28.55;;;;;;;0.47;36.27;151239.91;1740681;81;21205;-58
2021/01/17 01:22:12;;;;;;;94.25;29.60;;;;;;;0.41;36.26;151224.34;1744687;81;21363;-59
2021/01/17 01:24:45;;;;;;;86.92;27.98;;;;;;;0.39;36.47;151219.16;1738612;81;21170;-59
2021/01/17 01:27:18;;;;;;;99.47;29.92;;;;;;;0.38;36.55;151217.88;1748384;82;21313;-59
2021/01/17 01:29:51;;;;;;;102.07;34.23;;;;;;;0.35;36.58;151208.75;1768933;80;21363;-58
2021/01/17 01:32:25;;;;;;;95.97;27.98;;;;;;;0.33;36.33;151203.61;1769369;80;21230;-58
2021/01/17 01:34:58;;;;;;;88.00;28.50;;;;;;;0.27;36.26;151189.34;1771281;80;21332;-60
2021/01/17 01:37:37;;;;;;;93.30;30.00;;;;;;;0.29;36.45;151193.20;1776771;80;21380;-59
2021/01/17 01:40:11;;;;;;;93.62;27.93;;;;;;;0.24;36.22;151180.20;1772823;80;21154;-61
2021/01/17 01:42:45;;;;;;;100.53;27.22;;;;;;;0.22;36.37;151176.34;1769158;80;21344;-61
2021/01/17 01:45:18;;;;;;;89.67;26.80;;;;;;;0.27;36.39;151188.00;1769139;80;21824;-60
2021/01/17 01:47:50;;;;;;;86.32;25.12;;;;;;;0.33;36.49;151203.61;1756412;80;21200;-60
2021/01/17 01:50:23;;;;;;;84.45;24.07;;;;;;;0.33;36.40;151204.88;1723424;82;21637;-60
2021/01/17 01:52:56;;;;;;;88.07;25.15;;;;;;;0.32;36.50;151202.28;1741099;82;21214;-60
2021/01/17 01:55:29;;;;;;;88.15;28.38;;;;;;;0.34;36.53;151207.48;1734594;82;21221;-59
2021/01/17 01:58:05;;;;;;;110.08;30.72;;;;;;;0.26;36.33;151186.73;1766033;80;21649;-60
2021/01/17 02:00:38;;;;;;;112.15;30.12;;;;;;;0.14;36.61;151154.27;1785732;80;22033;-60
2021/01/17 02:03:12;;;;;;;113.05;33.30;;;;;;;0.07;36.50;151137.41;1801211;79;21201;-61
2021/01/17 02:05:45;;;;;;;126.87;33.73;;;;;;;0.02;36.74;151123.12;1785910;80;21186;-60
2021/01/17 02:08:47;;;;;;;102.42;28.55;;;;;;;-0.12;36.55;151086.84;1761356;80;21193;-60
2021/01/17 02:11:34;;;;;;;84.52;29.35;;;;;;;-0.17;36.61;151073.86;1778155;80;21268;-62
2021/01/17 02:14:39;;;;;;;97.88;31.73;;;;;;;-0.21;36.62;151063.47;1763475;80;22295;-61
2021/01/17 02:17:15;;;;;;;83.67;28.98;;;;;;;-0.19;36.63;151067.37;1734536;80;21198;-60
2021/01/17 02:20:25;;;;;;;85.42;30.77;;;;;;;-0.21;36.53;151063.47;1788334;79;21217;-60
2021/01/17 02:23:04;;;;;;;;;;;;;;;-0.12;36.62;151085.52;1792041;80;21807;-59
2021/01/17 02:25:38;;;;;;;98.33;30.37;;;;;;;-0.22;36.39;151060.86;1793583;79;20529;-60
2021/01/17 02:28:14;;;;;;;103.67;32.75;;;;;;;-0.33;36.43;151032.34;1747688;81;21225;-60
2021/01/17 02:30:52;;;;;;;95.67;28.62;;;;;;;-0.35;36.61;151027.19;1756213;80;21271;-59
2021/01/17 02:33:34;;;;;;;99.77;32.30;;;;;;;-0.22;36.76;151060.86;1788806;79;21253;-60
2021/01/17 02:36:24;;;;;;;104.12;32.25;;;;;;;-0.19;38.50;151067.37;1791435;79;21799;-60
2021/01/17 02:39:08;;;;;;;125.47;38.05;;;;;;;-0.25;37.82;151053.13;1767090;80;21324;-59
2021/01/17 02:42:04;;;;;;;118.93;36.10;;;;;;;-0.26;36.85;151050.52;1768554;79;21200;-59
2021/01/17 02:44:37;;;;;;;120.42;35.83;;;;;;;-0.23;36.71;151057.00;1797910;79;21846;-60
2021/01/17 02:47:09;;;;;;;124.02;36.03;;;;;;;-0.34;36.54;151028.47;1749964;80;21335;-59
2021/01/17 02:49:43;;;;;;;135.43;39.50;;;;;;;-0.34;36.48;151028.47;1731624;81;21193;-59
2021/01/17 02:52:16;;;;;;;140.55;41.05;;;;;;;-0.34;36.37;151029.73;1776070;79;21218;-60
2021/01/17 02:54:49;;;;;;;144.22;42.93;;;;;;;-0.19;36.27;151068.66;1760022;81;21891;-61
2021/01/17 02:57:25;;;;;;;137.30;41.18;;;;;;;-0.13;36.28;151084.25;1747626;81;21272;-59
2021/01/17 03:00:10;;;;;;;112.47;35.73;;;;;;;-0.13;36.29;151082.92;1750971;81;21166;-59
2021/01/17 03:02:45;;;;;;;107.70;33.70;;;;;;;-0.10;36.35;151090.72;1747814;80;21828;-62
2021/01/17 03:05:26;;;;;;;102.40;32.23;;;;;;;-0.15;36.16;151079.06;1731191;82;21298;-62
2021/01/17 03:07:57;;;;;;;128.57;34.63;;;;;;;-0.22;35.97;151059.59;1687213;83;21372;-62
2021/01/17 03:10:29;;;;;;;93.85;29.10;;;;;;;-0.29;36.10;151041.45;1726854;82;21204;-63
2021/01/17 03:13:03;;;;;;;113.72;31.65;;;;;;;-0.30;36.16;151040.13;1694195;83;21284;-66
2021/01/17 03:15:36;;;;;;;94.17;29.75;;;;;;;-0.31;35.95;151037.53;1715068;82;21359;-61
2021/01/17 03:18:09;;;;;;;77.27;28.70;;;;;;;-0.34;36.12;151029.73;1762811;81;21205;-62
2021/01/17 03:20:42;;;;;;;98.87;29.48;;;;;;;-0.35;36.04;151025.88;1744812;82;21351;-61
2021/01/17 03:23:16;;;;;;;81.57;28.12;;;;;;;-0.44;35.95;151003.81;1752852;81;21862;-61
2021/01/17 03:25:49;;;;;;;92.97;28.17;;;;;;;-0.47;36.07;150994.75;1710006;84;21344;-61
2021/01/17 03:28:23;;;;;;;82.78;25.77;;;;;;;-0.39;35.97;151016.80;1721256;83;21221;-61
2021/01/17 03:30:56;;;;;;;94.92;28.12;;;;;;;-0.45;36.13;150999.94;1720729;83;21260;-61
2021/01/17 03:33:29;;;;;;;94.58;27.17;;;;;;;-0.46;36.15;150997.34;1742327;81;21403;-61
2021/01/17 03:36:04;;;;;;;73.85;24.82;;;;;;;-0.49;36.17;150990.88;1741444;82;21360;-61
2021/01/17 03:38:37;;;;;;;82.92;24.37;;;;;;;-0.50;36.04;150988.28;1750906;81;21419;-61
2021/01/17 03:41:13;;;;;;;90.55;24.80;;;;;;;-0.53;36.05;150980.48;1750980;82;21220;-62
2021/01/17 03:43:46;;;;;;;85.10;26.40;;;;;;;-0.55;36.05;150974.02;1749451;82;21240;-61
2021/01/17 03:46:19;;;;;;;97.22;28.40;;;;;;;-0.56;35.97;150971.41;1751164;81;21308;-62
2021/01/17 03:48:52;;;;;;;78.45;26.10;;;;;;;-0.60;35.91;150961.03;1754047;81;21363;-61
2021/01/17 03:51:25;;;;;;;87.57;26.62;;;;;;;-0.59;36.01;150963.63;1739684;82;21210;-61
2021/01/17 03:53:58;;;;;;;72.92;25.08;;;;;;;-0.49;36.06;150990.88;1763628;81;21798;-61
2021/01/17 03:56:31;;;;;;;92.22;26.12;;;;;;;-0.38;35.96;151018.06;1734269;82;21309;-61
2021/01/17 03:59:04;;;;;;;102.30;28.98;;;;;;;-0.38;36.03;151018.06;1747908;81;21840;-61
2021/01/17 04:01:36;;;;;;;107.65;31.35;;;;;;;-0.38;36.12;151018.06;1739869;82;21234;-62
2021/01/17 04:04:09;;;;;;;106.72;32.80;;;;;;;-0.32;36.03;151033.66;1757426;80;21214;-60
2021/01/17 04:06:44;;;;;;;114.08;34.33;;;;;;;-0.33;35.97;151032.34;1776727;80;21350;-61
2021/01/17 04:09:25;;;;;;;102.78;31.15;;;;;;;-0.43;35.70;151006.41;1778947;80;21316;-60
2021/01/17 04:11:59;;;;;;;108.10;33.30;;;;;;;-0.53;35.94;150979.20;1769908;79;21427;-61
2021/01/17 04:14:32;;;;;;;98.58;33.78;;;;;;;-0.56;36.09;150972.69;1746394;80;21178;-61
2021/01/17 04:17:05;;;;;;;91.78;30.52;;;;;;;-0.43;36.03;151006.41;1754385;81;21396;-61
2021/01/17 04:19:38;;;;;;;127.22;32.85;;;;;;;-0.45;36.07;150999.94;1768362;81;21182;-62
2021/01/17 04:22:12;;;;;;;102.02;29.37;;;;;;;-0.47;36.12;150996.06;1732618;81;21380;-61
2021/01/17 04:24:46;;;;;;;90.20;30.02;;;;;;;-0.46;36.09;150998.61;1764742;80;21199;-61
2021/01/17 04:27:19;;;;;;;95.75;27.22;;;;;;;-0.50;37.12;150986.95;1756324;81;21163;-61
2021/01/17 04:29:51;;;;;;;80.32;27.62;;;;;;;-0.42;36.18;151007.73;1755078;81;21174;-60
2021/01/17 04:32:25;;;;;;;82.15;22.02;;;;;;;-0.45;35.97;151001.22;1756024;81;21246;-67
2021/01/17 04:34:59;;;;;;;77.92;23.73;;;;;;;-0.45;35.90;151001.22;1767275;80;21174;-63
2021/01/17 04:37:32;;;;;;;91.17;25.23;;;;;;;-0.44;35.83;151003.81;1769229;80;22255;-61
2021/01/17 04:40:08;;;;;;;74.03;23.67;;;;;;;-0.47;35.71;150996.06;1749280;81;21179;-70
2021/01/17 04:42:41;;;;;;;75.80;23.95;;;;;;;-0.53;35.77;150980.48;1755567;80;21337;-62
2021/01/17 04:45:17;;;;;;;71.72;23.00;;;;;;;-0.54;35.69;150977.88;1760952;80;21737;-61
2021/01/17 04:47:49;;;;;;;96.57;28.23;;;;;;;-0.55;35.86;150974.02;1772627;79;21253;-62
2021/01/17 04:50:22;;;;;;;93.33;27.60;;;;;;;-0.60;35.88;150961.03;1775412;80;21174;-60
2021/01/17 04:53:02;;;;;;;106.25;29.02;;;;;;;-0.55;35.63;150974.02;1770697;80;21253;-61
2021/01/17 04:55:36;;;;;;;104.95;30.60;;;;;;;-0.67;35.52;150944.17;1764998;80;21769;-61
2021/01/17 04:58:20;;;;;;;123.35;34.85;;;;;;;-0.75;35.31;150923.44;1769674;79;21166;-61
2021/01/17 05:00:59;;;;;;;127.05;35.50;;;;;;;-0.88;35.39;150888.47;1774252;80;21178;-59
2021/01/17 05:03:53;;;;;;;137.00;37.77;;;;;;;-1.00;36.07;150857.36;1742799;81;21336;-59
2021/01/17 05:06:36;;;;;;;110.32;31.65;;;;;;;-1.03;36.10;150849.56;1768693;80;21304;-59
2021/01/17 05:09:06;;;;;;;101.53;31.07;;;;;;;-0.89;36.20;150885.88;1751940;82;21812;-59
2021/01/17 05:11:40;;;;;;;103.60;31.68;;;;;;;-0.74;36.13;150926.05;1785766;80;21193;-59
2021/01/17 05:14:18;;;;;;;108.27;30.48;;;;;;;-0.64;36.06;150951.97;1785563;80;21465;-59
2021/01/17 05:16:51;;;;;;;99.72;27.90;;;;;;;-0.65;35.93;150949.36;1784662;80;21301;-60
2021/01/17 05:19:24;;;;;;;99.32;31.75;;;;;;;-0.66;35.97;150945.50;1731315;80;21178;-59
2021/01/17 05:21:57;;;;;;;105.00;32.15;;;;;;;-0.58;35.73;150966.22;1785190;80;21224;-59
2021/01/17 05:24:30;;;;;;;102.62;32.63;;;;;;;-0.66;35.69;150945.50;1785330;80;21355;-59
2021/01/17 05:27:03;;;;;;;98.15;31.90;;;;;;;-0.70;35.76;150935.11;1730610;80;21225;-60
2021/01/17 05:29:35;;;;;;;106.37;32.05;;;;;;;-0.53;35.92;150980.48;1761080;81;21210;-60
2021/01/17 05:32:08;;;;;;;111.77;34.88;;;;;;;-0.38;36.00;151018.06;1770960;81;21682;-60
2021/01/17 05:34:41;;;;;;;113.45;34.38;;;;;;;-0.54;35.58;150977.88;1752810;81;21394;-60
2021/01/17 05:37:17;;;;;;;108.37;35.92;;;;;;;-0.62;35.58;150957.16;1742726;82;21272;-61
2021/01/17 05:40:08;;;;;;;116.35;34.60;;;;;;;-0.73;35.64;150928.64;1776691;80;21217;-60
2021/01/17 05:42:42;;;;;;;101.33;33.60;;;;;;;-0.66;35.52;150945.50;1782392;80;21877;-60
2021/01/17 05:45:21;;;;;;;117.03;37.60;;;;;;;-0.66;35.48;150945.50;1751496;80;22423;-61
2021/01/17 05:48:00;;;;;;;126.33;38.63;;;;;;;-0.71;35.49;150933.84;1754830;80;21206;-61
2021/01/17 05:50:34;;;;;;;115.32;35.30;;;;;;;-0.69;35.42;150937.70;1777532;80;21359;-60
2021/01/17 05:53:07;;;;;;;113.37;36.05;;;;;;;-0.75;35.49;150923.44;1759511;80;21206;-61
2021/01/17 05:55:45;;;;;;;119.60;34.78;;;;;;;-0.85;35.50;150896.20;1727167;82;21352;-60
2021/01/17 05:58:33;;;;;;;119.60;40.28;;;;;;;-0.88;35.75;150889.73;1774205;80;21169;-61
2021/01/17 06:01:20;;;;;;;122.05;36.80;;;;;;;-0.89;35.83;150885.88;1745582;82;21412;-61
2021/01/17 06:03:55;;;;;;;159.65;41.75;;;;;;;-0.78;36.06;150914.38;1782517;80;21291;-61
2021/01/17 06:06:32;;;;;;;164.88;44.63;;;;;;;-0.55;36.01;150974.02;1783423;80;21414;-62
2021/01/17 06:09:06;;;;;;;154.78;44.98;;;;;;;-0.40;36.13;151014.20;1752660;81;22428;-60
2021/01/17 06:11:39;;;;;;;139.85;42.85;;;;;;;-0.30;35.90;151040.13;1784558;80;21374;-60
2021/01/17 06:14:12;;;;;;;125.27;38.10;;;;;;;-0.28;35.88;151044.00;1784348;80;21814;-59
2021/01/17 06:16:45;;;;;;;148.60;40.48;;;;;;;-0.23;36.00;151057.00;1745183;80;21763;-60
2021/01/17 06:19:18;;;;;;;124.80;36.68;;;;;;;-0.17;35.78;151072.58;1776321;80;21233;-59
2021/01/17 06:21:52;;;;;;;143.13;40.95;;;;;;;-0.25;35.40;151051.80;1775218;80;21390;-65
2021/01/17 06:24:40;;;;;;;143.82;42.20;;;;;;;-0.35;35.59;151027.19;1749139;82;21222;-60
2021/01/17 06:27:13;;;;;;;136.12;43.65;;;;;;;-0.31;35.86;151036.25;1775134;80;21918;-61
2021/01/17 06:29:47;;;;;;;158.35;47.08;;;;;;;-0.26;35.80;151050.52;1748069;81;21382;-61
2021/01/17 06:32:23;;;;;;;147.68;50.20;;;;;;;-0.27;35.66;151047.92;1782392;80;21713;-60
2021/01/17 06:34:58;;;;;;;141.20;44.73;;;;;;;-0.28;35.65;151045.33;1752035;82;21236;-60
2021/01/17 06:37:31;;;;;;;160.90;46.85;;;;;;;-0.10;35.82;151092.00;1741347;80;21358;-59
2021/01/17 06:40:06;;;;;;;163.70;45.12;;;;;;;-0.13;35.99;151084.25;1774147;80;21206;-59
2021/01/17 06:42:38;;;;;;;147.82;43.60;;;;;;;-0.09;35.77;151094.59;1753309;80;21203;-60
2021/01/17 06:45:16;;;;;;;149.50;45.25;;;;;;;-0.03;36.01;151108.86;1767516;80;21471;-60
2021/01/17 06:47:55;;;;;;;166.47;42.10;;;;;;;-0.03;36.02;151110.19;1752427;80;21620;-59
2021/01/17 06:50:28;;;;;;;129.40;41.60;;;;;;;0.00;36.25;151117.98;1772395;80;21316;-60
2021/01/17 06:53:03;;;;;;;144.93;43.55;;;;;;;0.11;36.37;151146.52;1781683;80;21205;-60
2021/01/17 06:55:37;;;;;;;136.10;43.63;;;;;;;0.21;36.50;151173.73;1759161;81;21347;-59
2021/01/17 06:58:14;;;;;;;134.32;42.08;;;;;;;0.31;36.43;151199.69;1763221;81;21265;-59
2021/01/17 07:00:48;;;;;;;115.97;36.05;;;;;;;0.38;36.50;151217.88;1775047;80;21348;-59
2021/01/17 07:03:21;;;;;;;101.25;35.40;;;;;;;0.51;36.59;151251.63;1754005;80;21213;-60
2021/01/17 07:06:10;;;;;;;102.12;32.95;;;;;;;0.70;36.80;151300.94;1768459;80;21257;-60
2021/01/17 07:08:52;;;;;;;109.50;34.90;;;;;;;0.83;36.46;151333.38;1724863;81;21155;-60
2021/01/17 07:11:51;;;;;;;111.30;34.00;;;;;;;0.88;36.62;151348.98;1748757;81;21704;-60
2021/01/17 07:14:30;;;;;;;100.35;33.78;;;;;;;1.07;36.73;151397.03;1694608;84;21197;-61
2021/01/17 07:17:02;;;;;;;105.20;34.92;;;;;;;1.22;36.71;151437.28;1743986;81;21363;-59
2021/01/17 07:19:40;;;;;;;111.17;37.63;;;;;;;1.27;38.36;151450.30;1756548;81;21343;-59
2021/01/17 07:22:14;;;;;;;106.15;38.58;;;;;;;1.39;37.46;151480.16;1731282;79;21201;-59
2021/01/17 07:24:48;;;;;;;115.10;36.05;;;;;;;1.56;37.17;151524.34;1758970;81;21213;-60
2021/01/17 07:27:25;;;;;;;98.80;33.23;;;;;;;1.61;37.03;151537.31;1742165;81;21417;-59
2021/01/17 07:29:59;;;;;;;87.50;32.30;;;;;;;1.62;37.32;151541.19;1757579;81;21704;-59
2021/01/17 07:32:38;;;;;;;105.95;34.33;;;;;;;1.75;37.21;151574.98;1767283;81;21366;-60
2021/01/17 07:35:13;;;;;;;93.52;33.92;;;;;;;1.90;36.84;151613.98;1783561;79;21211;-58
2021/01/17 07:37:46;;;;;;;96.42;33.45;;;;;;;2.00;37.00;151639.97;1786548;79;21324;-60
2021/01/17 07:43:16;;;;;;;91.02;30.72;;;;;;;2.04;36.77;151651.66;1782424;79;21264;-61
2021/01/17 07:45:52;;;;;;;89.97;33.78;;;;;;;2.14;36.77;151677.66;1779474;79;21374;-63
2021/01/17 07:48:28;;;;;;;82.78;28.45;;;;;;;2.22;37.35;151698.50;1783962;79;21394;-61
2021/01/17 07:51:07;;;;;;;72.60;27.32;;;;;;;2.17;36.25;151684.19;1750417;82;21265;-64
2021/01/17 07:53:49;;;;;;;66.92;25.00;;;;;;;2.63;37.02;151803.84;1782946;79;21435;-65
2021/01/17 07:56:35;;;;;;;62.03;22.27;;;;;;;3.13;36.77;151935.23;1750530;80;21237;-64
2021/01/17 07:59:10;;;;;;;49.67;18.92;;;;;;;3.58;36.82;152054.98;1756907;81;21882;-63
2021/01/17 08:01:52;;;;;;;55.80;20.77;;;;;;;4.30;37.53;152242.53;1756104;81;21181;-63
2021/01/17 08:04:28;;;;;;;49.60;19.77;;;;;;;5.07;37.81;152444.56;1755862;81;22144;-65
2021/01/17 08:07:03;;;;;;;56.10;21.42;;;;;;;5.64;37.13;152593.25;1755102;81;21740;-61
2021/01/17 08:09:48;;;;;;;52.98;21.23;;;;;;;5.91;36.17;152665.06;1749610;81;21769;-61
2021/01/17 08:12:37;;;;;;;59.83;21.00;;;;;;;6.38;36.82;152789.03;1770301;80;22000;-68
2021/01/17 08:15:24;;;;;;;48.33;19.40;;;;;;;6.63;34.64;152854.33;1769925;79;21368;-62
2021/01/17 08:17:58;;;;;;;55.73;18.75;;;;;;;7.02;36.65;152956.22;1770620;79;21403;-64
2021/01/17 08:20:32;;;;;;;47.70;19.02;;;;;;;7.63;37.71;153115.66;1770874;81;21407;-64
2021/01/17 08:23:09;;;;;;;49.23;19.50;;;;;;;8.33;37.01;153301.33;1770098;80;21379;-64
2021/01/17 08:25:49;;;;;;;;;;;;;;;8.94;37.07;153459.67;1774294;80;21373;-62
2021/01/17 08:28:34;;;;;;;47.67;18.37;;;;;;;9.26;37.71;153546.06;1770616;81;20377;-65
2021/01/17 08:31:38;;;;;;;45.08;18.90;;;;;;;9.26;35.85;153544.72;1770587;80;21911;-59
2021/01/17 08:34:11;;;;;;;52.03;18.73;;;;;;;9.33;37.01;153563.08;1770736;80;21385;-61
2021/01/17 08:36:46;;;;;;;49.13;18.73;;;;;;;9.88;36.68;153708.45;1771992;80;21266;-63
2021/01/17 08:39:47;;;;;;;55.38;18.82;;;;;;;10.24;35.99;153804.12;1770322;80;21306;-63
2021/01/17 08:42:32;;;;;;;43.78;17.62;;;;;;;10.44;35.45;153856.53;1759398;81;21285;-61
2021/01/17 08:45:13;;;;;;;50.65;20.10;;;;;;;10.66;35.16;153914.19;1760953;81;21395;-60
2021/01/17 08:47:47;;;;;;;;;;;;;;;10.67;35.23;153916.81;1704590;81;21287;-60
2021/01/17 08:50:35;;;;;;;47.60;18.80;;;;;;;10.61;35.50;153899.78;1776556;79;20230;-61
2021/01/17 08:53:12;;;;;;;48.90;18.60;;;;;;;10.81;37.21;153954.87;1743576;80;21439;-60
2021/01/17 08:55:54;;;;;;;50.25;19.07;;;;;;;11.29;37.42;154080.72;1747858;81;21248;-60
2021/01/17 08:58:36;;;;;;;48.90;18.17;;;;;;;11.46;33.11;154124.05;1749242;82;21206;-60
2021/01/17 09:01:13;;;;;;;45.85;17.70;;;;;;;11.17;34.55;154047.95;1766830;80;21355;-58
2021/01/17 09:03:50;;;;;;;44.08;17.45;;;;;;;11.10;32.78;154029.61;1770281;80;21250;-61
2021/01/17 09:06:29;;;;;;;51.80;21.33;;;;;;;10.78;32.95;153945.66;1770052;80;21667;-61
2021/01/17 09:09:08;;;;;;;45.67;17.85;;;;;;;10.86;35.87;153966.67;1770610;80;21384;-62
2021/01/17 09:11:43;;;;;;;51.20;20.23;;;;;;;11.34;36.64;154092.56;1770874;80;21438;-62
2021/01/17 09:14:24;;;;;;;48.15;17.67;;;;;;;11.50;36.38;154134.52;1760011;81;21398;-67
2021/01/17 09:17:10;;;;;;;46.42;19.23;;;;;;;11.96;35.41;154256.63;1760293;81;21272;-62
2021/01/17 09:19:44;;;;;;;37.65;17.48;;;;;;;11.97;37.07;154260.53;1759108;81;21161;-63
2021/01/17 09:22:19;;;;;;;41.05;17.25;;;;;;;12.12;37.04;154299.92;1760528;81;21426;-63
2021/01/17 09:24:53;;;;;;;32.05;14.53;;;;;;;12.38;35.21;154366.86;1761131;81;21839;-65
2021/01/17 09:27:27;;;;;;;41.70;16.60;;;;;;;12.43;32.77;154380.02;1759746;81;21426;-64
2021/01/17 09:30:01;;;;;;;47.70;17.30;;;;;;;12.14;33.60;154303.84;1759703;81;21483;-63
2021/01/17 09:32:36;;;;;;;47.10;16.85;;;;;;;12.05;34.74;154280.23;1760481;81;21390;-62
2021/01/17 09:35:11;;;;;;;40.60;17.80;;;;;;;12.32;37.31;154351.13;1759858;81;21438;-63
2021/01/17 09:37:46;;;;;;;39.98;16.95;;;;;;;12.91;34.12;154508.72;1760092;81;21843;-64
2021/01/17 09:40:19;;;;;;;42.38;17.10;;;;;;;13.27;36.10;154602.03;1761041;80;21418;-65
2021/01/17 09:42:55;;;;;;;37.08;16.80;;;;;;;13.58;36.25;154684.83;1768803;80;21241;-62
2021/01/17 09:45:30;;;;;;;44.38;18.25;;;;;;;13.80;37.34;154742.67;1760559;80;21404;-62
2021/01/17 09:48:05;;;;;;;38.23;16.42;;;;;;;14.27;36.22;154867.61;1760770;80;21439;-63
2021/01/17 09:50:38;;;;;;;32.93;14.90;;;;;;;14.41;35.87;154904.45;1760229;80;21276;-62
2021/01/17 09:53:13;;;;;;;39.58;15.58;;;;;;;14.48;36.42;154922.84;1760312;80;21358;-63
2021/01/17 09:55:48;;;;;;;35.55;16.30;;;;;;;15.08;37.35;155082.09;1758843;80;21327;-67
2021/01/17 09:58:22;;;;;;;33.55;14.35;;;;;;;15.46;35.88;155182.14;1759750;81;21273;-63
2021/01/17 10:00:55;;;;;;;33.95;13.78;;;;;;;14.84;33.58;155018.91;1730921;81;21300;-63
2021/01/17 10:03:29;;;;;;;34.92;14.73;;;;;;;14.42;32.42;154907.09;1755722;81;21241;-61
2021/01/17 10:06:04;;;;;;;35.38;16.02;;;;;;;13.35;32.88;154624.38;1755613;81;21410;-65
2021/01/17 10:08:43;;;;;;;33.42;15.43;;;;;;;12.34;35.96;154356.34;1758808;80;21301;-61
2021/01/17 10:11:21;;;;;;;29.75;13.20;;;;;;;12.11;36.83;154295.95;1771658;79;21411;-66
2021/01/17 10:13:56;;;;;;;31.30;13.43;;;;;;;12.11;35.49;154295.95;1725436;80;21252;-66
2021/01/17 10:16:30;;;;;;;40.70;14.87;;;;;;;11.69;35.98;154185.75;1752521;81;21300;-61
2021/01/17 10:19:08;;;;;;;32.93;14.03;;;;;;;11.96;36.78;154256.63;1752768;81;21236;-63
2021/01/17 10:21:42;;;;;;;29.85;14.33;;;;;;;12.86;38.30;154494.22;1752926;82;21209;-61
2021/01/17 10:24:23;;;;;;;41.75;16.80;;;;;;;14.09;37.17;154818.91;1684723;81;21380;-62
2021/01/17 10:27:05;;;;;;;32.38;15.05;;;;;;;14.88;36.16;155028.12;1749238;80;21166;-63
2021/01/17 10:29:42;;;;;;;35.43;15.63;;;;;;;15.35;36.12;155151.89;1752451;80;21234;-62
2021/01/17 10:32:16;;;;;;;36.38;14.28;;;;;;;15.36;33.92;155155.81;1753126;82;21729;-61
2021/01/17 10:34:50;;;;;;;37.00;13.55;;;;;;;15.43;36.78;155174.28;1752759;82;21822;-61
2021/01/17 10:37:22;;;;;;;34.53;14.55;;;;;;;15.66;37.35;155234.84;1752724;82;21237;-62
2021/01/17 10:39:58;;;;;;;32.55;14.70;;;;;;;15.49;34.47;155190.06;1752491;82;21368;-64
2021/01/17 10:42:31;;;;;;;30.40;12.98;;;;;;;14.85;36.21;155020.20;1761953;77;22282;-60
2021/01/17 10:45:09;;;;;;;29.87;13.95;;;;;;;14.62;38.76;154959.69;1781326;79;21216;-61
2021/01/17 10:48:03;;;;;;;36.58;15.13;;;;;;;15.20;38.83;155113.69;1783238;79;21405;-60
2021/01/17 10:50:43;;;;;;;28.67;14.45;;;;;;;15.71;37.85;155247.98;1744760;80;21352;-60
2021/01/17 10:53:37;;;;;;;34.92;14.90;;;;;;;15.43;36.73;155175.58;1739213;81;21182;-61
2021/01/17 10:56:11;;;;;;;34.67;15.00;;;;;;;15.04;37.58;155071.53;1781411;79;21624;-60
2021/01/17 10:58:46;;;;;;;36.98;16.17;;;;;;;15.03;34.77;155067.63;1631700;80;21238;-59
2021/01/17 11:01:22;;;;;;;37.88;15.72;;;;;;;14.79;34.73;155005.73;1597247;86;21264;-70
2021/01/17 11:03:55;;;;;;;40.60;16.05;;;;;;;14.36;35.22;154891.28;1599521;87;21377;-71
2021/01/17 11:06:31;;;;;;;35.33;16.70;;;;;;;13.91;32.72;154772.87;1610171;84;21212;-77
2021/01/17 11:09:05;;;;;;;42.40;17.23;;;;;;;12.92;31.30;154511.36;1645167;84;21205;-70
2021/01/17 11:11:48;;;;;;;40.30;17.23;;;;;;;12.24;31.54;154331.44;1622526;85;21737;-72
2021/01/17 11:14:31;;;;;;;38.67;17.27;;;;;;;11.86;33.56;154231.66;1646872;84;21275;-73
2021/01/17 11:17:05;;;;;;;39.92;16.90;;;;;;;11.99;32.88;154264.45;1626079;85;21196;-59
2021/01/17 11:19:40;;;;;;;33.58;16.60;;;;;;;12.46;36.61;154387.84;1610778;86;21209;-60
2021/01/17 11:22:13;;;;;;;42.05;17.23;;;;;;;13.03;34.23;154538.97;1596489;87;21364;-64
2021/01/17 11:24:46;;;;;;;39.20;17.30;;;;;;;13.27;34.26;154603.31;1595405;87;21297;-64
2021/01/17 11:27:18;;;;;;;42.10;17.62;;;;;;;12.92;34.51;154510.06;1579779;88;21164;-60
2021/01/17 11:29:52;;;;;;;39.78;18.12;;;;;;;12.62;33.24;154432.53;1582942;87;21742;-60
2021/01/17 11:32:35;;;;;;;39.42;16.48;;;;;;;12.32;33.44;154351.13;1546598;87;21235;-64
2021/01/17 11:35:28;;;;;;;39.95;16.35;;;;;;;12.04;33.40;154278.89;1588460;86;21182;-63
2021/01/17 11:38:01;;;;;;;35.52;14.30;;;;;;;11.85;34.73;154229.03;1589565;86;21347;-63
2021/01/17 11:40:34;;;;;;;35.95;16.57;;;;;;;11.42;34.28;154113.55;1586374;87;21307;-63
2021/01/17 11:43:10;;;;;;;37.17;16.55;;;;;;;10.81;33.89;153953.53;1587526;87;21263;-63
2021/01/17 11:45:46;;;;;;;38.05;15.30;;;;;;;9.86;32.51;153704.50;1582967;87;21206;-63
2021/01/17 11:48:19;;;;;;;46.92;15.45;;;;;;;9.43;35.14;153589.25;1596727;87;21779;-62
2021/01/17 11:50:52;;;;;;;32.63;15.13;;;;;;;9.12;35.33;153509.39;1594082;87;21286;-60
2021/01/17 11:53:27;;;;;;;35.23;15.75;;;;;;;8.83;35.08;153432.17;1590194;87;21313;-62